sensor_id;sensor_type;location;lat;lon;timestamp;P1;durP1;ratioP1;P2;durP2;ratioP2
4206;SDS011;2117;47.972;7.830;2022-08-19T03:30:59;20.87;;;18.20;;
4206;SDS011;2117;47.972;7.830;2022-08-19T03:33:27;25.30;;;20.60;;
4206;SDS011;2117;47.972;7.830;2022-08-19T03:36:26;24.00;;;19.53;;
4206;SDS011;2117;47.972;7.830;2022-08-19T03:38:48;20.90;;;18.70;;
4206;SDS011;2117;47.972;7.830;2022-08-19T03:41:19;20.47;;;16.60;;
4206;SDS011;2117;47.972;7.830;2022-08-19T03:43:47;22.03;;;19.73;;
4206;SDS011;2117;47.972;7.830;2022-08-19T03:46:14;23.10;;;20.60;;
4206;SDS011;2117;47.972;7.830;2022-08-19T03:48:51;20.23;;;18.13;;
4206;SDS011;2117;47.972;7.830;2022-08-19T03:53:51;23.20;;;20.67;;
4206;SDS011;2117;47.972;7.830;2022-08-19T03:56:18;23.50;;;20.00;;
4206;SDS011;2117;47.972;7.830;2022-08-19T03:58:44;24.17;;;19.80;;
4206;SDS011;2117;47.972;7.830;2022-08-19T04:01:11;23.00;;;18.83;;
4206;SDS011;2117;47.972;7.830;2022-08-19T04:03:40;23.70;;;21.20;;
4206;SDS011;2117;47.972;7.830;2022-08-19T04:06:12;24.53;;;21.90;;
4206;SDS011;2117;47.972;7.830;2022-08-19T04:08:40;25.30;;;21.27;;
4206;SDS011;2117;47.972;7.830;2022-08-19T04:11:12;25.80;;;20.70;;
4206;SDS011;2117;47.972;7.830;2022-08-19T04:13:39;23.17;;;20.67;;
4206;SDS011;2117;47.972;7.830;2022-08-19T04:16:06;24.47;;;21.63;;
4206;SDS011;2117;47.972;7.830;2022-08-19T04:18:35;25.60;;;22.77;;
4206;SDS011;2117;47.972;7.830;2022-08-19T04:21:01;25.93;;;23.13;;
4206;SDS011;2117;47.972;7.830;2022-08-19T04:23:27;27.57;;;22.23;;
4206;SDS011;2117;47.972;7.830;2022-08-19T04:25:55;29.10;;;23.10;;
4206;SDS011;2117;47.972;7.830;2022-08-19T04:28:21;27.67;;;22.10;;
4206;SDS011;2117;47.972;7.830;2022-08-19T04:30:49;30.07;;;24.00;;
4206;SDS011;2117;47.972;7.830;2022-08-19T04:33:17;25.43;;;21.93;;
4206;SDS011;2117;47.972;7.830;2022-08-19T04:35:46;29.50;;;21.57;;
4206;SDS011;2117;47.972;7.830;2022-08-19T04:38:13;25.80;;;23.10;;
4206;SDS011;2117;47.972;7.830;2022-08-19T04:40:41;23.70;;;20.87;;
4206;SDS011;2117;47.972;7.830;2022-08-19T04:43:27;11.37;;;10.27;;
4206;SDS011;2117;47.972;7.830;2022-08-19T04:45:53;18.03;;;14.50;;
4206;SDS011;2117;47.972;7.830;2022-08-19T04:48:19;14.30;;;12.90;;
4206;SDS011;2117;47.972;7.830;2022-08-19T04:50:50;16.43;;;14.80;;
4206;SDS011;2117;47.972;7.830;2022-08-19T04:53:22;16.87;;;15.17;;
4206;SDS011;2117;47.972;7.830;2022-08-19T04:55:50;19.43;;;15.07;;
4206;SDS011;2117;47.972;7.830;2022-08-19T04:58:16;17.23;;;15.20;;
4206;SDS011;2117;47.972;7.830;2022-08-19T05:00:42;19.63;;;16.83;;
4206;SDS011;2117;47.972;7.830;2022-08-19T05:03:08;18.70;;;16.77;;
4206;SDS011;2117;47.972;7.830;2022-08-19T05:05:38;19.00;;;17.00;;
4206;SDS011;2117;47.972;7.830;2022-08-19T05:08:05;21.23;;;17.73;;
4206;SDS011;2117;47.972;7.830;2022-08-19T05:10:34;19.33;;;17.40;;
4206;SDS011;2117;47.972;7.830;2022-08-19T05:13:00;19.50;;;17.43;;
4206;SDS011;2117;47.972;7.830;2022-08-19T05:15:26;22.37;;;19.97;;
4206;SDS011;2117;47.972;7.830;2022-08-19T05:17:52;20.93;;;18.67;;
4206;SDS011;2117;47.972;7.830;2022-08-19T05:20:37;22.87;;;20.20;;
4206;SDS011;2117;47.972;7.830;2022-08-19T05:23:22;23.60;;;19.13;;
4206;SDS011;2117;47.972;7.830;2022-08-19T05:25:48;22.20;;;19.57;;
4206;SDS011;2117;47.972;7.830;2022-08-19T05:28:15;26.73;;;21.17;;
4206;SDS011;2117;47.972;7.830;2022-08-19T05:30:41;21.17;;;18.60;;
4206;SDS011;2117;47.972;7.830;2022-08-19T05:33:08;23.37;;;19.80;;
4206;SDS011;2117;47.972;7.830;2022-08-19T05:35:36;23.30;;;20.57;;
4206;SDS011;2117;47.972;7.830;2022-08-19T05:38:02;20.53;;;18.53;;
4206;SDS011;2117;47.972;7.830;2022-08-19T05:40:28;21.53;;;19.43;;
4206;SDS011;2117;47.972;7.830;2022-08-19T05:42:54;20.53;;;17.63;;
4206;SDS011;2117;47.972;7.830;2022-08-19T05:45:19;19.57;;;17.47;;
4206;SDS011;2117;47.972;7.830;2022-08-19T05:47:46;17.07;;;15.23;;
4206;SDS011;2117;47.972;7.830;2022-08-19T05:50:12;17.57;;;15.10;;
4206;SDS011;2117;47.972;7.830;2022-08-19T05:52:38;17.60;;;15.80;;
4206;SDS011;2117;47.972;7.830;2022-08-19T05:55:04;21.20;;;19.00;;
4206;SDS011;2117;47.972;7.830;2022-08-19T05:57:30;20.43;;;18.13;;
4206;SDS011;2117;47.972;7.830;2022-08-19T05:59:56;19.40;;;17.30;;
4206;SDS011;2117;47.972;7.830;2022-08-19T06:02:25;19.23;;;16.07;;
4206;SDS011;2117;47.972;7.830;2022-08-19T06:04:52;17.07;;;15.00;;
4206;SDS011;2117;47.972;7.830;2022-08-19T06:07:17;15.83;;;13.97;;
4206;SDS011;2117;47.972;7.830;2022-08-19T06:09:44;16.43;;;14.80;;
4206;SDS011;2117;47.972;7.830;2022-08-19T06:12:09;18.17;;;16.27;;
4206;SDS011;2117;47.972;7.830;2022-08-19T06:14:35;16.37;;;14.67;;
4206;SDS011;2117;47.972;7.830;2022-08-19T06:17:01;17.73;;;15.93;;
4206;SDS011;2117;47.972;7.830;2022-08-19T06:19:28;17.87;;;16.07;;
4206;SDS011;2117;47.972;7.830;2022-08-19T06:21:56;16.33;;;14.67;;
4206;SDS011;2117;47.972;7.830;2022-08-19T06:24:24;16.67;;;14.87;;
4206;SDS011;2117;47.972;7.830;2022-08-19T06:26:52;16.03;;;14.50;;
4206;SDS011;2117;47.972;7.830;2022-08-19T06:29:20;17.07;;;15.27;;
4206;SDS011;2117;47.972;7.830;2022-08-19T06:31:49;21.07;;;16.67;;
4206;SDS011;2117;47.972;7.830;2022-08-19T06:34:16;18.90;;;16.37;;
4206;SDS011;2117;47.972;7.830;2022-08-19T06:36:47;17.37;;;15.67;;
4206;SDS011;2117;47.972;7.830;2022-08-19T06:39:16;17.90;;;15.97;;
4206;SDS011;2117;47.972;7.830;2022-08-19T06:41:48;17.47;;;15.70;;
4206;SDS011;2117;47.972;7.830;2022-08-19T06:44:16;16.37;;;14.30;;
4206;SDS011;2117;47.972;7.830;2022-08-19T06:46:44;16.83;;;15.07;;
4206;SDS011;2117;47.972;7.830;2022-08-19T06:49:09;15.53;;;14.00;;
4206;SDS011;2117;47.972;7.830;2022-08-19T06:51:38;17.43;;;15.60;;
4206;SDS011;2117;47.972;7.830;2022-08-19T06:54:08;17.07;;;13.90;;
4206;SDS011;2117;47.972;7.830;2022-08-19T06:56:34;18.53;;;16.63;;
4206;SDS011;2117;47.972;7.830;2022-08-19T06:59:06;14.57;;;13.17;;
4206;SDS011;2117;47.972;7.830;2022-08-19T07:01:35;19.07;;;14.67;;
4206;SDS011;2117;47.972;7.830;2022-08-19T07:04:10;15.93;;;14.23;;
4206;SDS011;2117;47.972;7.830;2022-08-19T07:06:36;17.60;;;15.73;;
4206;SDS011;2117;47.972;7.830;2022-08-19T07:09:03;15.87;;;14.00;;
4206;SDS011;2117;47.972;7.830;2022-08-19T07:11:30;14.90;;;13.40;;
4206;SDS011;2117;47.972;7.830;2022-08-19T07:13:57;18.40;;;16.50;;
4206;SDS011;2117;47.972;7.830;2022-08-19T07:16:23;18.23;;;16.53;;
4206;SDS011;2117;47.972;7.830;2022-08-19T07:18:50;20.70;;;18.53;;
4206;SDS011;2117;47.972;7.830;2022-08-19T07:21:26;19.00;;;17.00;;
4206;SDS011;2117;47.972;7.830;2022-08-19T07:23:53;17.87;;;15.97;;
4206;SDS011;2117;47.972;7.830;2022-08-19T07:26:21;18.57;;;16.67;;
4206;SDS011;2117;47.972;7.830;2022-08-19T07:28:52;22.30;;;19.07;;
4206;SDS011;2117;47.972;7.830;2022-08-19T07:31:20;21.73;;;16.43;;
4206;SDS011;2117;47.972;7.830;2022-08-19T07:33:49;21.30;;;18.73;;
4206;SDS011;2117;47.972;7.830;2022-08-19T07:36:18;23.33;;;20.20;;
4206;SDS011;2117;47.972;7.830;2022-08-19T07:38:48;22.03;;;17.23;;
4206;SDS011;2117;47.972;7.830;2022-08-19T07:41:17;24.27;;;16.40;;
4206;SDS011;2117;47.972;7.830;2022-08-19T07:43:45;17.57;;;15.77;;
4206;SDS011;2117;47.972;7.830;2022-08-19T07:46:12;17.83;;;16.03;;
4206;SDS011;2117;47.972;7.830;2022-08-19T07:48:38;21.60;;;16.17;;
4206;SDS011;2117;47.972;7.830;2022-08-19T07:51:06;20.43;;;16.63;;
4206;SDS011;2117;47.972;7.830;2022-08-19T07:53:33;21.00;;;18.87;;
4206;SDS011;2117;47.972;7.830;2022-08-19T07:55:59;21.10;;;19.00;;
4206;SDS011;2117;47.972;7.830;2022-08-19T07:58:30;21.90;;;19.67;;
4206;SDS011;2117;47.972;7.830;2022-08-19T08:01:00;20.70;;;18.50;;
4206;SDS011;2117;47.972;7.830;2022-08-19T08:03:27;21.23;;;19.10;;
4206;SDS011;2117;47.972;7.830;2022-08-19T08:06:13;24.37;;;20.93;;
4206;SDS011;2117;47.972;7.830;2022-08-19T08:08:58;24.23;;;21.60;;
4206;SDS011;2117;47.972;7.830;2022-08-19T08:11:38;26.00;;;19.83;;
4206;SDS011;2117;47.972;7.830;2022-08-19T08:14:04;27.47;;;19.47;;
4206;SDS011;2117;47.972;7.830;2022-08-19T08:16:31;23.03;;;20.70;;
4206;SDS011;2117;47.972;7.830;2022-08-19T08:19:00;23.07;;;20.73;;
4206;SDS011;2117;47.972;7.830;2022-08-19T08:21:26;24.20;;;21.63;;
4206;SDS011;2117;47.972;7.830;2022-08-19T08:23:51;30.13;;;22.03;;
4206;SDS011;2117;47.972;7.830;2022-08-19T08:26:20;24.70;;;21.63;;
4206;SDS011;2117;47.972;7.830;2022-08-19T08:28:45;25.67;;;22.93;;
4206;SDS011;2117;47.972;7.830;2022-08-19T08:31:12;26.60;;;22.30;;
4206;SDS011;2117;47.972;7.830;2022-08-19T08:33:38;26.90;;;23.97;;
4206;SDS011;2117;47.972;7.830;2022-08-19T08:36:07;27.10;;;23.33;;
4206;SDS011;2117;47.972;7.830;2022-08-19T08:38:34;28.77;;;25.27;;
4206;SDS011;2117;47.972;7.830;2022-08-19T08:41:01;28.27;;;25.30;;
4206;SDS011;2117;47.972;7.830;2022-08-19T08:43:44;27.23;;;24.27;;
4206;SDS011;2117;47.972;7.830;2022-08-19T08:46:16;28.23;;;25.23;;
4206;SDS011;2117;47.972;7.830;2022-08-19T08:49:01;30.00;;;26.47;;
4206;SDS011;2117;47.972;7.830;2022-08-19T08:51:42;28.80;;;24.23;;
4206;SDS011;2117;47.972;7.830;2022-08-19T08:54:13;30.30;;;27.20;;
4206;SDS011;2117;47.972;7.830;2022-08-19T08:56:43;32.93;;;27.10;;
4206;SDS011;2117;47.972;7.830;2022-08-19T09:01:46;28.73;;;25.63;;
4206;SDS011;2117;47.972;7.830;2022-08-19T09:04:13;29.67;;;26.60;;
4206;SDS011;2117;47.972;7.830;2022-08-19T09:06:53;27.33;;;24.60;;
4206;SDS011;2117;47.972;7.830;2022-08-19T09:09:40;30.47;;;26.37;;
4206;SDS011;2117;47.972;7.830;2022-08-19T09:12:10;29.03;;;25.93;;
4206;SDS011;2117;47.972;7.830;2022-08-19T09:15:01;26.67;;;24.07;;
4206;SDS011;2117;47.972;7.830;2022-08-19T09:17:29;27.40;;;24.20;;
4206;SDS011;2117;47.972;7.830;2022-08-19T09:22:33;29.27;;;26.10;;
4206;SDS011;2117;47.972;7.830;2022-08-19T09:25:01;29.30;;;26.17;;
4206;SDS011;2117;47.972;7.830;2022-08-19T09:27:28;29.70;;;26.60;;
4206;SDS011;2117;47.972;7.830;2022-08-19T09:29:54;29.90;;;26.90;;
4206;SDS011;2117;47.972;7.830;2022-08-19T09:32:20;27.87;;;24.73;;
4206;SDS011;2117;47.972;7.830;2022-08-19T09:34:47;30.13;;;25.77;;
4206;SDS011;2117;47.972;7.830;2022-08-19T09:37:12;26.67;;;23.80;;
4206;SDS011;2117;47.972;7.830;2022-08-19T09:39:39;29.30;;;26.00;;
4206;SDS011;2117;47.972;7.830;2022-08-19T09:42:06;27.97;;;24.77;;
4206;SDS011;2117;47.972;7.830;2022-08-19T09:44:36;28.63;;;25.63;;
4206;SDS011;2117;47.972;7.830;2022-08-19T09:47:05;34.43;;;27.23;;
4206;SDS011;2117;47.972;7.830;2022-08-19T09:49:32;29.30;;;25.20;;
4206;SDS011;2117;47.972;7.830;2022-08-19T09:51:58;26.43;;;23.67;;
4206;SDS011;2117;47.972;7.830;2022-08-19T09:54:25;31.40;;;28.00;;
4206;SDS011;2117;47.972;7.830;2022-08-19T09:56:54;28.70;;;25.23;;
4206;SDS011;2117;47.972;7.830;2022-08-19T09:59:20;29.40;;;26.20;;
4206;SDS011;2117;47.972;7.830;2022-08-19T10:01:46;29.70;;;26.10;;
4206;SDS011;2117;47.972;7.830;2022-08-19T10:04:12;31.80;;;26.90;;
4206;SDS011;2117;47.972;7.830;2022-08-19T10:06:38;29.10;;;26.00;;
4206;SDS011;2117;47.972;7.830;2022-08-19T10:09:05;28.90;;;25.80;;
4206;SDS011;2117;47.972;7.830;2022-08-19T10:11:33;31.87;;;27.17;;
4206;SDS011;2117;47.972;7.830;2022-08-19T10:14:00;26.93;;;23.97;;
4206;SDS011;2117;47.972;7.830;2022-08-19T10:16:26;30.97;;;26.70;;
4206;SDS011;2117;47.972;7.830;2022-08-19T10:18:52;28.63;;;24.53;;
4206;SDS011;2117;47.972;7.830;2022-08-19T10:21:23;27.13;;;23.50;;
4206;SDS011;2117;47.972;7.830;2022-08-19T10:23:51;29.67;;;24.70;;
4206;SDS011;2117;47.972;7.830;2022-08-19T10:26:20;29.17;;;23.70;;
4206;SDS011;2117;47.972;7.830;2022-08-19T10:28:47;26.90;;;24.10;;
4206;SDS011;2117;47.972;7.830;2022-08-19T10:31:15;27.27;;;24.30;;
4206;SDS011;2117;47.972;7.830;2022-08-19T10:33:44;28.63;;;25.53;;
4206;SDS011;2117;47.972;7.830;2022-08-19T10:36:12;36.17;;;26.03;;
4206;SDS011;2117;47.972;7.830;2022-08-19T10:38:40;30.70;;;26.50;;
4206;SDS011;2117;47.972;7.830;2022-08-19T10:41:13;28.50;;;25.53;;
4206;SDS011;2117;47.972;7.830;2022-08-19T10:43:40;27.70;;;24.77;;
4206;SDS011;2117;47.972;7.830;2022-08-19T10:46:07;29.10;;;26.20;;
4206;SDS011;2117;47.972;7.830;2022-08-19T10:48:34;30.00;;;26.77;;
4206;SDS011;2117;47.972;7.830;2022-08-19T10:51:00;26.23;;;23.63;;
4206;SDS011;2117;47.972;7.830;2022-08-19T10:53:45;28.73;;;25.67;;
4206;SDS011;2117;47.972;7.830;2022-08-19T10:56:11;28.90;;;26.00;;
4206;SDS011;2117;47.972;7.830;2022-08-19T10:58:56;26.27;;;23.47;;
4206;SDS011;2117;47.972;7.830;2022-08-19T11:01:22;28.57;;;25.47;;
4206;SDS011;2117;47.972;7.830;2022-08-19T11:03:49;28.27;;;25.47;;
4206;SDS011;2117;47.972;7.830;2022-08-19T11:06:14;25.77;;;22.77;;
4206;SDS011;2117;47.972;7.830;2022-08-19T11:08:40;31.10;;;27.10;;
4206;SDS011;2117;47.972;7.830;2022-08-19T11:11:09;29.57;;;26.30;;
4206;SDS011;2117;47.972;7.830;2022-08-19T11:13:36;28.53;;;23.90;;
4206;SDS011;2117;47.972;7.830;2022-08-19T11:16:05;27.43;;;24.63;;
4206;SDS011;2117;47.972;7.830;2022-08-19T11:18:36;27.00;;;24.20;;
4206;SDS011;2117;47.972;7.830;2022-08-19T11:21:11;27.70;;;24.60;;
4206;SDS011;2117;47.972;7.830;2022-08-19T11:23:42;27.33;;;24.50;;
4206;SDS011;2117;47.972;7.830;2022-08-19T11:26:08;32.87;;;24.50;;
4206;SDS011;2117;47.972;7.830;2022-08-19T11:28:34;28.50;;;24.07;;
4206;SDS011;2117;47.972;7.830;2022-08-19T11:31:00;27.30;;;24.10;;
4206;SDS011;2117;47.972;7.830;2022-08-19T11:33:27;26.93;;;24.17;;
4206;SDS011;2117;47.972;7.830;2022-08-19T11:35:53;26.80;;;23.50;;
4206;SDS011;2117;47.972;7.830;2022-08-19T11:38:19;27.60;;;24.60;;
4206;SDS011;2117;47.972;7.830;2022-08-19T11:40:44;28.43;;;25.43;;
4206;SDS011;2117;47.972;7.830;2022-08-19T11:43:10;30.97;;;27.13;;
4206;SDS011;2117;47.972;7.830;2022-08-19T11:45:36;30.20;;;26.93;;
4206;SDS011;2117;47.972;7.830;2022-08-19T11:48:01;29.53;;;26.20;;
4206;SDS011;2117;47.972;7.830;2022-08-19T11:50:28;26.60;;;24.03;;
4206;SDS011;2117;47.972;7.830;2022-08-19T11:52:54;32.67;;;28.80;;
4206;SDS011;2117;47.972;7.830;2022-08-19T11:55:21;29.97;;;26.77;;
4206;SDS011;2117;47.972;7.830;2022-08-19T11:57:47;30.80;;;27.10;;
4206;SDS011;2117;47.972;7.830;2022-08-19T12:00:13;20.57;;;18.30;;
4206;SDS011;2117;47.972;7.830;2022-08-19T12:02:40;29.97;;;26.87;;
4206;SDS011;2117;47.972;7.830;2022-08-19T12:05:06;31.57;;;28.37;;
4206;SDS011;2117;47.972;7.830;2022-08-19T12:07:33;32.37;;;28.50;;
4206;SDS011;2117;47.972;7.830;2022-08-19T12:09:59;33.40;;;30.00;;
4206;SDS011;2117;47.972;7.830;2022-08-19T12:12:25;29.87;;;26.87;;
4206;SDS011;2117;47.972;7.830;2022-08-19T12:14:52;32.73;;;23.93;;
4206;SDS011;2117;47.972;7.830;2022-08-19T12:17:25;28.83;;;25.77;;
4206;SDS011;2117;47.972;7.830;2022-08-19T12:19:52;28.23;;;25.53;;
4206;SDS011;2117;47.972;7.830;2022-08-19T12:22:18;30.57;;;27.47;;
4206;SDS011;2117;47.972;7.830;2022-08-19T12:24:45;26.67;;;23.97;;
4206;SDS011;2117;47.972;7.830;2022-08-19T12:27:11;26.13;;;22.93;;
4206;SDS011;2117;47.972;7.830;2022-08-19T12:29:37;26.10;;;23.60;;
4206;SDS011;2117;47.972;7.830;2022-08-19T12:32:02;22.90;;;20.80;;
4206;SDS011;2117;47.972;7.830;2022-08-19T12:34:29;26.17;;;23.70;;
4206;SDS011;2117;47.972;7.830;2022-08-19T12:37:00;23.67;;;21.37;;
4206;SDS011;2117;47.972;7.830;2022-08-19T12:39:28;22.23;;;20.00;;
4206;SDS011;2117;47.972;7.830;2022-08-19T12:41:55;24.83;;;22.50;;
4206;SDS011;2117;47.972;7.830;2022-08-19T12:44:21;21.47;;;19.37;;
4206;SDS011;2117;47.972;7.830;2022-08-19T12:46:47;24.10;;;21.90;;
4206;SDS011;2117;47.972;7.830;2022-08-19T12:49:14;21.70;;;19.30;;
4206;SDS011;2117;47.972;7.830;2022-08-19T12:51:40;22.30;;;20.00;;
4206;SDS011;2117;47.972;7.830;2022-08-19T12:54:07;22.60;;;20.47;;
4206;SDS011;2117;47.972;7.830;2022-08-19T12:56:33;20.60;;;18.80;;
4206;SDS011;2117;47.972;7.830;2022-08-19T12:59:02;22.00;;;19.90;;
4206;SDS011;2117;47.972;7.830;2022-08-19T13:01:29;22.27;;;20.30;;
4206;SDS011;2117;47.972;7.830;2022-08-19T13:03:57;20.17;;;18.07;;
4206;SDS011;2117;47.972;7.830;2022-08-19T13:06:23;21.53;;;19.30;;
4206;SDS011;2117;47.972;7.830;2022-08-19T13:08:49;23.97;;;19.90;;
4206;SDS011;2117;47.972;7.830;2022-08-19T13:11:15;23.40;;;21.00;;
4206;SDS011;2117;47.972;7.830;2022-08-19T13:13:46;23.90;;;21.53;;
4206;SDS011;2117;47.972;7.830;2022-08-19T13:16:13;25.00;;;22.70;;
4206;SDS011;2117;47.972;7.830;2022-08-19T13:18:40;21.77;;;19.53;;
4206;SDS011;2117;47.972;7.830;2022-08-19T13:21:07;25.07;;;19.90;;
4206;SDS011;2117;47.972;7.830;2022-08-19T13:23:36;22.90;;;20.20;;
4206;SDS011;2117;47.972;7.830;2022-08-19T13:26:03;20.10;;;18.10;;
4206;SDS011;2117;47.972;7.830;2022-08-19T13:28:31;21.43;;;19.33;;
4206;SDS011;2117;47.972;7.830;2022-08-19T13:31:17;23.70;;;21.40;;
4206;SDS011;2117;47.972;7.830;2022-08-19T13:34:02;23.00;;;20.60;;
4206;SDS011;2117;47.972;7.830;2022-08-19T13:36:30;22.87;;;20.67;;
4206;SDS011;2117;47.972;7.830;2022-08-19T13:38:56;23.70;;;21.60;;
4206;SDS011;2117;47.972;7.830;2022-08-19T13:41:22;20.63;;;18.80;;
4206;SDS011;2117;47.972;7.830;2022-08-19T13:43:48;24.47;;;22.13;;
4206;SDS011;2117;47.972;7.830;2022-08-19T13:46:14;20.50;;;18.70;;
4206;SDS011;2117;47.972;7.830;2022-08-19T13:48:40;18.60;;;16.90;;
4206;SDS011;2117;47.972;7.830;2022-08-19T13:51:06;19.27;;;17.67;;
4206;SDS011;2117;47.972;7.830;2022-08-19T13:53:35;20.50;;;18.30;;
4206;SDS011;2117;47.972;7.830;2022-08-19T13:56:06;20.60;;;18.90;;
4206;SDS011;2117;47.972;7.830;2022-08-19T13:58:36;21.03;;;18.10;;
4206;SDS011;2117;47.972;7.830;2022-08-19T14:01:02;20.60;;;18.60;;
4206;SDS011;2117;47.972;7.830;2022-08-19T14:03:29;19.93;;;18.13;;
4206;SDS011;2117;47.972;7.830;2022-08-19T14:05:55;18.53;;;17.03;;
4206;SDS011;2117;47.972;7.830;2022-08-19T14:08:21;19.33;;;17.53;;
4206;SDS011;2117;47.972;7.830;2022-08-19T14:10:47;19.93;;;18.23;;
4206;SDS011;2117;47.972;7.830;2022-08-19T14:13:17;20.03;;;18.23;;
4206;SDS011;2117;47.972;7.830;2022-08-19T14:15:45;21.37;;;19.17;;
4206;SDS011;2117;47.972;7.830;2022-08-19T14:18:12;20.63;;;18.83;;
4206;SDS011;2117;47.972;7.830;2022-08-19T14:20:39;20.03;;;18.10;;
4206;SDS011;2117;47.972;7.830;2022-08-19T14:23:04;18.80;;;17.00;;
4206;SDS011;2117;47.972;7.830;2022-08-19T14:25:31;20.87;;;18.60;;
4206;SDS011;2117;47.972;7.830;2022-08-19T14:27:57;20.97;;;19.07;;
4206;SDS011;2117;47.972;7.830;2022-08-19T14:30:24;22.43;;;20.47;;
4206;SDS011;2117;47.972;7.830;2022-08-19T14:32:56;18.43;;;16.73;;
4206;SDS011;2117;47.972;7.830;2022-08-19T14:35:23;20.53;;;18.43;;
4206;SDS011;2117;47.972;7.830;2022-08-19T14:37:50;17.37;;;15.40;;
4206;SDS011;2117;47.972;7.830;2022-08-19T14:40:20;16.40;;;14.80;;
4206;SDS011;2117;47.972;7.830;2022-08-19T14:42:51;19.87;;;18.17;;
4206;SDS011;2117;47.972;7.830;2022-08-19T14:45:20;20.07;;;18.07;;
4206;SDS011;2117;47.972;7.830;2022-08-19T14:47:46;21.57;;;19.33;;
4206;SDS011;2117;47.972;7.830;2022-08-19T14:50:11;20.87;;;18.33;;
4206;SDS011;2117;47.972;7.830;2022-08-19T14:52:38;21.97;;;19.57;;
4206;SDS011;2117;47.972;7.830;2022-08-19T14:55:05;23.63;;;21.43;;
4206;SDS011;2117;47.972;7.830;2022-08-19T14:57:31;23.77;;;21.23;;
4206;SDS011;2117;47.972;7.830;2022-08-19T14:59:56;22.00;;;20.00;;
4206;SDS011;2117;47.972;7.830;2022-08-19T15:02:22;21.87;;;19.53;;
4206;SDS011;2117;47.972;7.830;2022-08-19T15:04:48;20.63;;;18.63;;
4206;SDS011;2117;47.972;7.830;2022-08-19T15:07:15;21.70;;;19.50;;
4206;SDS011;2117;47.972;7.830;2022-08-19T15:09:40;24.53;;;22.00;;
4206;SDS011;2117;47.972;7.830;2022-08-19T15:12:07;21.60;;;19.30;;
4206;SDS011;2117;47.972;7.830;2022-08-19T15:14:35;23.17;;;19.70;;
4206;SDS011;2117;47.972;7.830;2022-08-19T15:17:02;21.30;;;19.30;;
4206;SDS011;2117;47.972;7.830;2022-08-19T15:19:30;22.67;;;20.30;;
4206;SDS011;2117;47.972;7.830;2022-08-19T15:21:57;20.07;;;18.23;;
4206;SDS011;2117;47.972;7.830;2022-08-19T15:24:23;22.47;;;18.77;;
4206;SDS011;2117;47.972;7.830;2022-08-19T15:26:50;21.90;;;19.67;;
4206;SDS011;2117;47.972;7.830;2022-08-19T15:29:16;21.80;;;19.50;;
4206;SDS011;2117;47.972;7.830;2022-08-19T15:31:42;19.67;;;17.87;;
4206;SDS011;2117;47.972;7.830;2022-08-19T15:34:07;21.17;;;18.97;;
4206;SDS011;2117;47.972;7.830;2022-08-19T15:36:33;20.40;;;16.97;;
4206;SDS011;2117;47.972;7.830;2022-08-19T15:39:00;18.60;;;16.70;;
4206;SDS011;2117;47.972;7.830;2022-08-19T15:41:28;20.33;;;18.30;;
4206;SDS011;2117;47.972;7.830;2022-08-19T15:46:22;19.73;;;17.63;;
4206;SDS011;2117;47.972;7.830;2022-08-19T15:48:50;21.80;;;19.00;;
4206;SDS011;2117;47.972;7.830;2022-08-19T15:51:17;20.47;;;18.37;;
4206;SDS011;2117;47.972;7.830;2022-08-19T15:53:42;19.47;;;17.77;;
4206;SDS011;2117;47.972;7.830;2022-08-19T15:56:08;17.50;;;15.70;;
4206;SDS011;2117;47.972;7.830;2022-08-19T15:58:35;19.90;;;17.80;;
4206;SDS011;2117;47.972;7.830;2022-08-19T16:01:19;18.93;;;16.17;;
4206;SDS011;2117;47.972;7.830;2022-08-19T16:04:03;18.93;;;16.90;;
4206;SDS011;2117;47.972;7.830;2022-08-19T16:06:48;16.80;;;15.30;;
4206;SDS011;2117;47.972;7.830;2022-08-19T16:09:19;17.70;;;15.90;;
4206;SDS011;2117;47.972;7.830;2022-08-19T16:11:47;18.03;;;16.33;;
4206;SDS011;2117;47.972;7.830;2022-08-19T16:14:14;17.00;;;15.40;;
4206;SDS011;2117;47.972;7.830;2022-08-19T16:16:41;17.43;;;15.93;;
4206;SDS011;2117;47.972;7.830;2022-08-19T16:19:10;20.83;;;18.93;;
4206;SDS011;2117;47.972;7.830;2022-08-19T16:21:40;19.70;;;17.73;;
4206;SDS011;2117;47.972;7.830;2022-08-19T16:24:08;19.83;;;17.27;;
4206;SDS011;2117;47.972;7.830;2022-08-19T16:26:36;18.00;;;14.70;;
4206;SDS011;2117;47.972;7.830;2022-08-19T16:29:03;17.00;;;15.30;;
4206;SDS011;2117;47.972;7.830;2022-08-19T16:31:30;19.13;;;17.10;;
4206;SDS011;2117;47.972;7.830;2022-08-19T16:33:56;19.83;;;16.30;;
4206;SDS011;2117;47.972;7.830;2022-08-19T16:36:22;18.80;;;17.10;;
4206;SDS011;2117;47.972;7.830;2022-08-19T16:38:49;17.00;;;15.30;;
4206;SDS011;2117;47.972;7.830;2022-08-19T16:41:18;18.13;;;16.30;;
4206;SDS011;2117;47.972;7.830;2022-08-19T16:43:44;17.17;;;15.53;;
4206;SDS011;2117;47.972;7.830;2022-08-19T16:46:10;19.13;;;16.17;;
4206;SDS011;2117;47.972;7.830;2022-08-19T16:48:36;19.20;;;17.40;;
4206;SDS011;2117;47.972;7.830;2022-08-19T16:51:07;19.07;;;17.27;;
4206;SDS011;2117;47.972;7.830;2022-08-19T16:53:33;17.53;;;15.67;;
4206;SDS011;2117;47.972;7.830;2022-08-19T16:56:00;18.10;;;16.30;;
4206;SDS011;2117;47.972;7.830;2022-08-19T16:58:29;17.87;;;16.17;;
4206;SDS011;2117;47.972;7.830;2022-08-19T17:00:58;18.00;;;16.27;;
4206;SDS011;2117;47.972;7.830;2022-08-19T17:03:26;18.80;;;17.07;;
4206;SDS011;2117;47.972;7.830;2022-08-19T17:05:53;16.87;;;15.17;;
4206;SDS011;2117;47.972;7.830;2022-08-19T17:08:20;16.13;;;14.53;;
4206;SDS011;2117;47.972;7.830;2022-08-19T17:10:50;15.60;;;14.20;;
4206;SDS011;2117;47.972;7.830;2022-08-19T17:13:18;16.70;;;15.00;;
4206;SDS011;2117;47.972;7.830;2022-08-19T17:15:45;17.37;;;14.70;;
4206;SDS011;2117;47.972;7.830;2022-08-19T17:18:12;15.10;;;13.70;;
4206;SDS011;2117;47.972;7.830;2022-08-19T17:20:38;15.40;;;13.90;;
4206;SDS011;2117;47.972;7.830;2022-08-19T17:23:05;16.83;;;15.23;;
4206;SDS011;2117;47.972;7.830;2022-08-19T17:25:32;18.03;;;15.47;;
4206;SDS011;2117;47.972;7.830;2022-08-19T17:28:05;16.60;;;15.00;;
4206;SDS011;2117;47.972;7.830;2022-08-19T17:30:35;16.00;;;14.03;;
4206;SDS011;2117;47.972;7.830;2022-08-19T17:33:02;17.07;;;15.40;;
4206;SDS011;2117;47.972;7.830;2022-08-19T17:35:28;16.57;;;14.87;;
4206;SDS011;2117;47.972;7.830;2022-08-19T17:37:54;17.43;;;15.17;;
4206;SDS011;2117;47.972;7.830;2022-08-19T17:40:20;15.47;;;13.87;;
4206;SDS011;2117;47.972;7.830;2022-08-19T17:42:46;15.97;;;14.33;;
4206;SDS011;2117;47.972;7.830;2022-08-19T17:45:12;15.90;;;14.30;;
4206;SDS011;2117;47.972;7.830;2022-08-19T17:47:38;18.90;;;14.40;;
4206;SDS011;2117;47.972;7.830;2022-08-19T17:50:06;16.50;;;14.97;;
4206;SDS011;2117;47.972;7.830;2022-08-19T17:52:34;16.47;;;15.00;;
4206;SDS011;2117;47.972;7.830;2022-08-19T17:55:01;16.53;;;14.93;;
4206;SDS011;2117;47.972;7.830;2022-08-19T17:57:28;16.90;;;15.10;;
4206;SDS011;2117;47.972;7.830;2022-08-19T17:59:53;16.77;;;15.07;;
4206;SDS011;2117;47.972;7.830;2022-08-19T18:02:19;17.20;;;14.70;;
4206;SDS011;2117;47.972;7.830;2022-08-19T18:04:45;16.50;;;14.90;;
4206;SDS011;2117;47.972;7.830;2022-08-19T18:07:10;21.80;;;15.43;;
4206;SDS011;2117;47.972;7.830;2022-08-19T18:09:37;17.80;;;16.10;;
4206;SDS011;2117;47.972;7.830;2022-08-19T18:12:04;17.70;;;16.10;;
4206;SDS011;2117;47.972;7.830;2022-08-19T18:14:32;17.23;;;15.03;;
4206;SDS011;2117;47.972;7.830;2022-08-19T18:17:10;20.57;;;16.67;;
4206;SDS011;2117;47.972;7.830;2022-08-19T18:19:38;19.03;;;17.13;;
4206;SDS011;2117;47.972;7.830;2022-08-19T18:22:05;19.47;;;17.57;;
4206;SDS011;2117;47.972;7.830;2022-08-19T18:24:30;18.13;;;16.53;;
4206;SDS011;2117;47.972;7.830;2022-08-19T18:26:56;18.53;;;15.53;;
4206;SDS011;2117;47.972;7.830;2022-08-19T18:29:22;18.93;;;15.90;;
4206;SDS011;2117;47.972;7.830;2022-08-19T18:31:47;19.10;;;17.17;;
4206;SDS011;2117;47.972;7.830;2022-08-19T18:34:13;18.50;;;16.60;;